AirNav   Everest Fuels
 
 846 users online  

07A Franklin Field Airport
Union Springs, Alabama, USA

GOING TO UNION SPRINGS?


FAA INFORMATION EFFECTIVE 21 MAY 2020

Location

FAA Identifier: 07A
Lat/Long: 32-10-03.3320N 085-48-40.3080W
32-10.055533N 085-48.671800W
32.1675922,-85.8111967
(estimated)
Elevation: 300.5 ft. / 91.6 m (surveyed)
Variation: 01W (1985)
From city: 5 miles W of UNION SPRINGS, AL
Time zone: UTC -5 (UTC -6 during Standard Time)
Zip code: 36089

Airport Operations

Airport use: Open to the public
Activation date: 05/1963
Control tower: no
ARTCC: ATLANTA CENTER
FSS: ANNISTON FLIGHT SERVICE STATION
NOTAMs facility: ANB (NOTAM-D service available)
Attendance: UNATNDD
Wind indicator: lighted
Segmented circle: yes
Lights: ACTVT MIRL RWY 14/32 - CTAF.
Beacon: white-green (lighted land airport)
Operates sunset to sunrise.

Airport Communications

CTAF/UNICOM: 122.8

Nearby radio navigation aids

VOR radial/distance  VOR name  Freq  Var
TGEr199/20.4TUSKEGEE VOR/DME117.3002E
MGMr094/26.0MONTGOMERY VORTAC112.1003E
EUFr289/37.0EUFAULA VORTAC109.2002E

 
NDB name  Hdg/Dist  Freq  Var  ID
BLOOD041/25.236504WTOI - --- ..

Airport Services

Fuel available: 100LL
Parking: tiedowns
Airframe service: NONE
Powerplant service: NONE
Bottled oxygen: NONE
Bulk oxygen: NONE

Runway Information

Runway 14/32

Dimensions: 5002 x 80 ft. / 1525 x 24 m
Surface: asphalt, in fair condition
Weight bearing capacity: 
Single wheel: 15.0
Runway edge lights: medium intensity
RUNWAY 14  RUNWAY 32
Latitude: 32-10.366552N32-09.744485N
Longitude: 085-48.990282W085-48.353370W
Elevation: 292.5 ft.298.6 ft.
Traffic pattern: leftleft
Runway heading: 140 magnetic, 139 true320 magnetic, 319 true
Markings: basic, in good conditionbasic, in good condition
Runway end identifier lights: yesyes
Touchdown point: yes, no lightsyes, no lights
Obstructions: 74 ft. tree, 2187 ft. from runway, 105 ft. right of centerline, 26:1 slope to clear102 ft. tree, 1452 ft. from runway, 32 ft. right of centerline, 12:1 slope to clear

Airport Ownership and Management from official FAA records

Ownership: Publicly-owned
Owner: BULLOCK COUNTY
PO BOX 352
UNION SPRINGS, AL 36089
Phone 334-738-3839
Manager: FRANKLIN FLD ARPT AUTHORITY
PO BOX 522
UNION SPRINGS, AL 36089
Phone 334-750-2109
334-738-3883.

Airport Operational Statistics

Aircraft based on the field: 10
Single engine airplanes: 10
    
Aircraft operations: avg 125/week *
88% transient general aviation
12% local general aviation
* for 12-month period ending 07 February 2020

Additional Remarks

DEER ON & INVOF ARPT.
FOR CD CTC MONTGOMERY APCH AT 334-284-4575. WHEN APCH CLSD FOR CD CTC ATLANTA ARTCC AT 770-210-7692.

Instrument Procedures

There are no published instrument procedures at 07A.

Some nearby airports with instrument procedures:

06A - Moton Field Municipal Airport (19 nm N)
KTOI - Troy Municipal Airport at N Kenneth Campbell Field (21 nm SW)
11A - Clayton Municipal Airport (24 nm SE)
KMGM - Montgomery Regional Airport (Dannelly Field) (31 nm W)
KMXF - Maxwell Air Force Base (31 nm NW)
 
Loc | Ops | Rwys | IFR | FBO | Links
Com | Nav | Svcs | Stats | Notes

Continental Services
AirBoss

 
Area around 07A (Franklin Field Airport)
 
Road maps at: MapQuest Bing Google
 
Aerial photo
WARNING: Photo may not be current or correct
Aerial photo of 07A (Franklin Field Airport)
Photo courtesy of Goodwyn, Mills and Cawood, Inc.; Southern Resources Mapping
Taken in September 2015
looking north.

Do you have a better or more recent aerial photo of Franklin Field Airport that you would like to share? If so, please send us your photo.

 
Sectional chart

 
Airport distance calculator
Flying to Franklin Field Airport? Find the distance to fly.

From to 07A

Sunrise and sunset
Times for 04-Jun-2020
 Local
(UTC-5)
 Zulu
(UTC)
Morning civil twilight05:1010:10
Sunrise05:3810:38
Sunset19:4600:46
Evening civil twilight20:1401:14

Current date and time
Zulu (UTC)  05-Jun-2020 03:05:53
Local (UTC-5)  04-Jun-2020 22:05:53
 
METAR
KTOI 
22nm SW 
050253Z AUTO 14003KT 10SM CLR 23/20 A2996 RMK AO2 SLP138 T02280200 51012
KMXF 
31nm NW 
050256Z AUTO 00000KT 10SM CLR 26/22 A2993 RMK AO2 SLP136 T02570215 52019
KMGM 
31nm W 
050253Z 22005KT 10SM CLR 26/21 A2994 RMK AO2 SLP135 T02560206 51019
KAUO 
34nm NE 
050256Z AUTO 18006KT 10SM FEW037 SCT044 BKN060 24/21 A2998 RMK AO2 SLP161 T02390211 51017 $
K1A9 
39nm NW 
050255Z AUTO 00000KT 10SM SCT050 25/21 A2993 RMK AO2 T02510210
KLSF 
42nm E 
050256Z AUTO 00000KT 10SM FEW048 SCT150 22/20 A2994 RMK AO2 SLP142 T02190203 52015
TAF
KTOI 
22nm SW 
041734Z 0418/0518 20004KT P6SM VCSH SCT030 FM050000 VRB04KT P6SM SCT030 FM050900 22005KT P6SM SCT030 FM051700 22006KT P6SM BKN040
NOTAMs
Click for the latest NOTAMs
NOTAMs are issued by the DoD/FAA and will open in a separate window not controlled by AirNav.

 

 
 

FBO, Fuel Providers, and Aircraft Ground Support

  
 Business Name 
 
 Contact 
 
 Services / Description 
 
Fuel Prices
 
Comments
  
Franklin Field Airport Authority 334-750-2109
[web site]
[email]
Aviation fuel, Aircraft parking (ramp or tiedown), Hangar leasing / sales, Pilots lounge / snooze room, Internet access, Restrooms

More info about Franklin Field Airport Authority
independent
100LL
SS $4.05 
 Updated 02-Jun-2020
 
   1 read write
SS=Self service
Update Fuel Prices
 

Would you like to see your business listed on this page?

 If your business provides an interesting product or service to pilots, flight crews, aircraft, or users of the Franklin Field Airport, you should consider listing it here.  To start the listing process, click on the button below
 
Add a business
 

Other Pages about Franklin Field Airport

www.franklinfieldairport.com
 
Update a link
 
Copyright © AirNav, LLC. All rights reserved. Privacy Policy  Contact